createdAt,value
2023-03-13T00:01:48.009Z,99763.84
2023-03-13T00:06:49.950Z,99758.81
2023-03-13T00:11:52.361Z,99746.00
2023-03-13T00:16:54.430Z,99736.41
2023-03-13T00:21:56.452Z,99728.81
2023-03-13T00:27:03.474Z,99706.03
2023-03-13T00:32:05.962Z,99708.69
2023-03-13T00:37:08.028Z,99706.25
2023-03-13T00:42:09.918Z,99691.19
2023-03-13T00:47:11.898Z,99682.81
2023-03-13T00:52:13.916Z,99667.16
2023-03-13T00:57:15.857Z,99661.84
2023-03-13T01:02:18.219Z,99660.56
2023-03-13T01:07:20.101Z,99653.00
2023-03-13T01:12:22.023Z,99646.81
2023-03-13T01:17:24.043Z,99648.03
2023-03-13T01:22:26.063Z,99631.63
2023-03-13T01:27:29.082Z,99607.78
2023-03-13T01:32:33.977Z,99616.03
2023-03-13T01:37:35.988Z,99598.63
2023-03-13T01:42:55.258Z,99585.47
2023-03-13T01:47:58.318Z,99577.06
2023-03-13T01:53:00.447Z,99576.22
2023-03-13T01:58:02.537Z,99563.94
2023-03-13T02:03:09.353Z,99554.72
2023-03-13T02:08:49.430Z,99561.16
2023-03-13T02:13:52.297Z,99554.16
2023-03-13T02:18:54.416Z,99545.72
2023-03-13T02:24:22.963Z,99528.53
2023-03-13T02:29:25.880Z,99522.06
2023-03-13T02:34:32.602Z,99508.81
2023-03-13T02:39:35.260Z,99478.84
2023-03-13T02:44:41.326Z,99464.53
2023-03-13T02:49:43.356Z,99464.00
2023-03-13T02:54:47.719Z,99464.00
2023-03-13T02:59:49.659Z,99462.50
2023-03-13T03:04:51.520Z,99464.94
2023-03-13T03:09:53.442Z,99457.72
2023-03-13T03:14:55.280Z,99452.25
2023-03-13T03:19:57.405Z,99445.31
2023-03-13T03:24:59.327Z,99443.56
2023-03-13T03:30:01.216Z,99433.50
2023-03-13T03:35:03.385Z,99447.88
2023-03-13T03:40:10.097Z,99442.13
2023-03-13T03:45:12.084Z,99442.78
2023-03-13T03:50:14.223Z,99440.91
2023-03-13T03:55:16.212Z,99432.44
2023-03-13T04:00:19.828Z,99440.91
2023-03-13T04:05:22.606Z,99424.25
2023-03-13T04:10:24.539Z,99434.47
2023-03-13T04:15:26.607Z,99432.81
2023-03-13T04:20:29.152Z,99419.50
2023-03-13T04:25:31.211Z,99419.50
2023-03-13T04:30:33.303Z,99420.09
2023-03-13T04:35:35.274Z,99402.47
2023-03-13T04:40:37.114Z,99406.25
2023-03-13T04:45:38.994Z,99375.81
2023-03-13T04:50:40.827Z,99358.78
2023-03-13T04:55:42.986Z,99355.53
2023-03-13T05:00:44.786Z,99352.13
2023-03-13T05:05:46.662Z,99350.59
2023-03-13T05:10:48.465Z,99334.03
2023-03-13T05:15:50.384Z,99330.75
2023-03-13T05:20:52.273Z,99352.41
2023-03-13T05:25:56.639Z,99360.13
2023-03-13T05:30:58.730Z,99355.53
2023-03-13T05:36:00.631Z,99353.47
2023-03-13T05:41:02.760Z,99367.47
2023-03-13T05:46:04.985Z,99361.41
2023-03-13T05:51:07.225Z,99377.19
2023-03-13T05:56:09.376Z,99366.81
2023-03-13T06:01:13.810Z,99363.09
2023-03-13T06:06:15.955Z,99361.50
2023-03-13T06:11:17.911Z,99362.34
2023-03-13T06:16:20.333Z,99367.25
2023-03-13T06:21:22.089Z,99370.72
2023-03-13T06:26:26.066Z,99377.19
2023-03-13T06:31:27.937Z,99368.47
2023-03-13T06:36:29.945Z,99363.31
2023-03-13T06:41:31.877Z,99353.06
2023-03-13T06:46:33.753Z,99348.91
2023-03-13T06:51:35.654Z,99342.84
2023-03-13T06:56:37.782Z,99337.88
2023-03-13T07:01:39.545Z,99327.53
2023-03-13T07:06:41.353Z,99329.63
2023-03-13T07:11:43.308Z,99328.13
2023-03-13T07:16:46.549Z,99319.75
2023-03-13T07:21:49.880Z,99329.13
2023-03-13T07:27:04.914Z,99324.00
2023-03-13T07:32:09.477Z,99314.34
2023-03-13T07:37:12.893Z,99330.88
2023-03-13T07:42:14.744Z,99325.50
2023-03-13T07:47:16.901Z,99335.78
2023-03-13T07:52:23.312Z,99333.00
2023-03-13T07:57:25.229Z,99321.75
2023-03-13T08:02:27.346Z,99322.41
2023-03-13T08:07:29.336Z,99322.31
2023-03-13T08:12:31.365Z,99327.63
2023-03-13T08:17:33.227Z,99321.78
2023-03-13T08:22:37.255Z,99312.59
2023-03-13T08:27:39.437Z,99302.72
2023-03-13T08:32:41.585Z,99290.09
2023-03-13T08:37:43.790Z,99303.75
2023-03-13T08:42:45.920Z,99297.69
2023-03-13T08:47:52.164Z,99294.47
2023-03-13T08:52:54.227Z,99289.25
2023-03-13T08:57:56.322Z,99290.22
2023-03-13T09:02:58.775Z,99278.75
2023-03-13T09:08:00.647Z,99285.56
2023-03-13T09:13:03.274Z,99278.47
2023-03-13T09:18:06.755Z,99277.16
2023-03-13T09:23:08.698Z,99271.19
2023-03-13T09:28:10.699Z,99264.22
2023-03-13T09:33:12.859Z,99261.88
2023-03-13T09:38:15.295Z,99248.50
2023-03-13T09:43:41.385Z,99260.94
2023-03-13T09:48:51.565Z,99254.91
2023-03-13T09:54:09.113Z,99240.94
2023-03-13T09:59:18.029Z,99247.63
2023-03-13T10:04:20.043Z,99243.69
2023-03-13T10:09:30.036Z,99229.31
2023-03-13T10:15:02.598Z,99223.38
2023-03-13T10:20:24.905Z,99212.09
2023-03-13T10:25:41.322Z,99206.19
2023-03-13T10:30:48.756Z,99213.88
2023-03-13T10:36:09.306Z,99220.31
2023-03-13T10:41:20.429Z,99185.78
2023-03-13T10:46:31.133Z,99171.91
2023-03-13T10:51:38.861Z,99157.47
2023-03-13T10:56:40.802Z,99151.38
2023-03-13T11:01:45.140Z,99142.69
2023-03-13T11:06:58.270Z,99155.03
2023-03-13T11:12:21.234Z,99130.06
2023-03-13T11:17:29.135Z,99134.00
2023-03-13T11:22:54.118Z,99134.09
2023-03-13T11:28:14.221Z,99115.47
2023-03-13T11:33:33.475Z,99121.16
2023-03-13T11:38:44.770Z,99111.94
2023-03-13T11:44:04.654Z,99105.63
2023-03-13T11:49:34.819Z,99112.59
2023-03-13T11:54:54.621Z,99084.31
2023-03-13T12:00:23.097Z,99081.88
2023-03-13T12:05:26.674Z,99072.47
2023-03-13T12:10:44.350Z,99060.78
2023-03-13T12:15:51.964Z,99054.13
2023-03-13T12:21:06.840Z,99051.16
2023-03-13T12:26:20.924Z,99059.44
2023-03-13T12:31:28.775Z,99033.16
2023-03-13T12:36:44.453Z,99028.69
2023-03-13T12:42:07.897Z,99027.97
2023-03-13T12:47:33.741Z,99026.28
2023-03-13T12:53:02.180Z,98999.38
2023-03-13T12:58:18.058Z,98993.25
2023-03-13T13:03:44.429Z,98993.84
2023-03-13T13:09:02.394Z,98992.09
2023-03-13T13:14:19.212Z,98985.16
2023-03-13T13:19:23.937Z,98979.38
2023-03-13T13:24:41.124Z,98966.47
2023-03-13T13:29:42.904Z,98951.75
2023-03-13T13:35:06.974Z,98943.97
2023-03-13T13:40:29.605Z,98942.72
2023-03-13T13:45:38.264Z,98930.47
2023-03-13T13:50:40.384Z,98938.03
2023-03-13T13:55:44.513Z,98941.91
2023-03-13T14:00:54.319Z,98932.25
2023-03-13T14:06:40.970Z,98939.31
2023-03-13T14:11:43.097Z,98909.75
2023-03-13T14:16:52.812Z,98920.28
2023-03-13T14:22:00.404Z,98918.97
2023-03-13T14:27:03.546Z,98910.00
2023-03-13T14:32:06.478Z,98911.19
2023-03-13T14:37:38.340Z,98890.91
2023-03-13T14:42:48.332Z,98887.00
2023-03-13T14:47:54.508Z,98877.16
2023-03-13T14:53:12.739Z,98878.72
2023-03-13T14:58:20.628Z,98860.69
2023-03-13T15:03:31.811Z,98857.16
2023-03-13T15:08:35.949Z,98856.47
2023-03-13T15:13:38.224Z,98842.66
2023-03-13T15:18:40.836Z,98838.59
2023-03-13T15:23:47.460Z,98822.31
2023-03-13T15:28:49.679Z,98827.00
2023-03-13T15:33:56.882Z,98794.81
2023-03-13T15:38:58.870Z,98790.25
2023-03-13T15:44:00.965Z,98760.63
2023-03-13T15:49:03.177Z,98764.97
2023-03-13T15:54:05.152Z,98753.50
2023-03-13T15:59:12.085Z,98750.19
2023-03-13T16:04:14.298Z,98722.00
2023-03-13T16:09:18.146Z,98727.81
2023-03-13T16:14:20.222Z,98725.38
2023-03-13T16:19:22.004Z,98717.84
2023-03-13T16:24:23.865Z,98700.16
2023-03-13T16:29:25.928Z,98699.28
2023-03-13T16:34:27.741Z,98703.00
2023-03-13T16:39:29.773Z,98703.88
2023-03-13T16:44:31.753Z,98703.88
2023-03-13T16:49:33.717Z,98703.53
2023-03-13T16:54:35.667Z,98700.16
2023-03-13T16:59:37.628Z,98696.91
2023-03-13T17:04:39.549Z,98690.13
2023-03-13T17:09:41.868Z,98690.50
2023-03-13T17:14:44.108Z,98686.75
2023-03-13T17:19:46.078Z,98678.91
2023-03-13T17:24:49.452Z,98673.50
2023-03-13T17:29:51.192Z,98654.97
2023-03-13T17:34:53.171Z,98646.66
2023-03-13T17:39:55.394Z,98643.16
2023-03-13T17:44:57.263Z,98642.84
2023-03-13T17:49:59.177Z,98644.41
2023-03-13T17:55:01.114Z,98641.75
2023-03-13T18:00:04.247Z,98645.63
2023-03-13T18:05:06.528Z,98636.31
2023-03-13T18:10:19.600Z,98638.41
2023-03-13T18:15:22.971Z,98635.25
2023-03-13T18:20:27.061Z,98630.41
2023-03-13T18:25:29.671Z,98621.50
2023-03-13T18:30:31.551Z,98635.94
2023-03-13T18:35:33.732Z,98622.44
2023-03-13T18:40:35.713Z,98624.41
2023-03-13T18:45:38.630Z,98614.75
2023-03-13T18:50:40.645Z,98604.00
2023-03-13T18:55:42.804Z,98590.53
2023-03-13T19:00:45.026Z,98588.72
2023-03-13T19:05:46.838Z,98581.50
2023-03-13T19:10:49.122Z,98577.41
2023-03-13T19:15:51.422Z,98579.97
2023-03-13T19:20:53.549Z,98562.50
2023-03-13T19:25:57.128Z,98549.09
2023-03-13T19:30:58.991Z,98545.88
2023-03-13T19:36:01.610Z,98531.91
2023-03-13T19:41:04.097Z,98523.81
2023-03-13T19:46:21.393Z,98530.53
2023-03-13T19:51:24.144Z,98539.94
2023-03-13T19:56:31.308Z,98544.97
2023-03-13T20:01:33.365Z,98549.81
2023-03-13T20:06:35.909Z,98562.72
2023-03-13T20:11:38.294Z,98557.66
2023-03-13T20:16:40.140Z,98538.16
2023-03-13T20:21:43.146Z,98548.53
2023-03-13T20:26:45.068Z,98559.84
2023-03-13T20:31:47.253Z,98542.44
2023-03-13T20:36:49.206Z,98553.03
2023-03-13T20:41:51.200Z,98556.78
2023-03-13T20:46:53.261Z,98569.44
2023-03-13T20:51:55.317Z,98572.25
2023-03-13T20:56:58.493Z,98547.22
2023-03-13T21:02:00.494Z,98553.81
2023-03-13T21:07:04.783Z,98533.69
2023-03-13T21:12:07.433Z,98539.34
2023-03-13T21:17:11.546Z,98552.84
2023-03-13T21:22:13.609Z,98553.34
2023-03-13T21:27:16.255Z,98532.38
2023-03-13T21:32:19.767Z,98522.69
2023-03-13T21:37:21.871Z,98529.78
2023-03-13T21:42:23.868Z,98522.59
2023-03-13T21:47:26.206Z,98533.56
2023-03-13T21:52:28.257Z,98530.69
2023-03-13T21:57:30.732Z,98523.69
2023-03-13T22:02:32.889Z,98507.81
2023-03-13T22:07:36.132Z,98510.44
2023-03-13T22:12:38.154Z,98507.75
2023-03-13T22:17:40.110Z,98520.06
2023-03-13T22:22:41.950Z,98534.78
2023-03-13T22:27:43.943Z,98546.81
2023-03-13T22:32:46.034Z,98538.63
2023-03-13T22:37:48.301Z,98538.72
2023-03-13T22:42:51.937Z,98520.47
2023-03-13T22:47:53.951Z,98511.41
2023-03-13T22:52:56.129Z,98493.22
2023-03-13T22:57:58.250Z,98484.72
2023-03-13T23:03:00.490Z,98471.25
2023-03-13T23:08:02.465Z,98480.66
2023-03-13T23:13:04.803Z,98489.47
2023-03-13T23:18:08.153Z,98492.50
2023-03-13T23:23:10.104Z,98501.72
2023-03-13T23:28:12.153Z,98524.06
2023-03-13T23:33:14.081Z,98544.53
2023-03-13T23:38:18.690Z,98564.44
2023-03-13T23:43:20.856Z,98563.13
2023-03-13T23:48:22.768Z,98558.09
2023-03-13T23:53:24.769Z,98552.28
2023-03-13T23:58:26.896Z,98529.97
